createdAt,value
2023-10-17T00:00:27.688Z,101290.84
2023-10-17T00:02:55.743Z,101292.44
2023-10-17T00:05:24.614Z,101279.50
2023-10-17T00:07:53.098Z,101287.94
2023-10-17T00:10:22.519Z,101287.88
2023-10-17T00:12:53.831Z,101289.50
2023-10-17T00:15:28.731Z,101292.84
2023-10-17T00:18:02.357Z,101287.63
2023-10-17T00:20:38.653Z,101280.75
2023-10-17T00:23:07.383Z,101288.44
2023-10-17T00:25:39.154Z,101274.66
2023-10-17T00:28:07.280Z,101278.91
2023-10-17T00:30:35.106Z,101272.06
2023-10-17T00:33:03.018Z,101272.84
2023-10-17T00:35:37.972Z,101271.94
2023-10-17T00:38:08.628Z,101267.59
2023-10-17T00:40:46.746Z,101259.09
2023-10-17T00:43:14.757Z,101264.13
2023-10-17T00:45:42.846Z,101263.16
2023-10-17T00:48:18.346Z,101262.25
2023-10-17T00:50:47.132Z,101262.31
2023-10-17T00:53:15.028Z,101263.06
2023-10-17T00:55:51.702Z,101257.91
2023-10-17T00:58:23.074Z,101250.97
2023-10-17T01:00:54.779Z,101253.63
2023-10-17T01:03:26.079Z,101258.78
2023-10-17T01:06:11.847Z,101255.31
2023-10-17T01:08:40.830Z,101260.47
2023-10-17T01:11:17.524Z,101260.53
2023-10-17T01:13:45.907Z,101268.31
2023-10-17T01:16:13.805Z,101259.84
2023-10-17T01:18:42.516Z,101259.03
2023-10-17T01:21:10.872Z,101252.34
2023-10-17T01:23:39.982Z,101253.34
2023-10-17T01:26:12.223Z,101257.81
2023-10-17T01:28:39.939Z,101258.06
2023-10-17T01:31:08.002Z,101254.75
2023-10-17T01:33:36.229Z,101244.56
2023-10-17T01:36:06.338Z,101244.63
2023-10-17T01:38:34.251Z,101243.03
2023-10-17T01:41:02.038Z,101244.06
2023-10-17T01:43:37.563Z,101242.34
2023-10-17T01:46:07.408Z,101249.94
2023-10-17T01:48:35.831Z,101249.81
2023-10-17T01:51:07.524Z,101242.88
2023-10-17T01:53:40.055Z,101239.44
2023-10-17T01:56:17.852Z,101232.59
2023-10-17T01:58:49.850Z,101229.13
2023-10-17T02:01:19.146Z,101231.81
2023-10-17T02:03:47.173Z,101227.59
2023-10-17T02:06:18.922Z,101231.13
2023-10-17T02:08:46.907Z,101227.72
2023-10-17T02:11:24.425Z,101223.47
2023-10-17T02:13:57.353Z,101220.09
2023-10-17T02:16:25.663Z,101229.53
2023-10-17T02:18:55.324Z,101227.78
2023-10-17T02:21:23.487Z,101234.63
2023-10-17T02:23:51.570Z,101235.44
2023-10-17T02:26:22.742Z,101226.00
2023-10-17T02:28:51.846Z,101231.00
2023-10-17T02:31:28.979Z,101224.13
2023-10-17T02:33:56.999Z,101226.69
2023-10-17T02:36:25.145Z,101234.41
2023-10-17T02:38:53.166Z,101237.81
2023-10-17T02:41:21.081Z,101242.91
2023-10-17T02:43:49.258Z,101230.88
2023-10-17T02:46:17.227Z,101225.63
2023-10-17T02:48:47.201Z,101213.59
2023-10-17T02:51:32.721Z,101217.88
2023-10-17T02:54:00.905Z,101218.75
2023-10-17T02:56:28.880Z,101203.28
2023-10-17T02:59:07.512Z,101203.22
2023-10-17T03:01:37.945Z,101214.38
2023-10-17T03:04:12.652Z,101209.13
2023-10-17T03:06:41.845Z,101194.53
2023-10-17T03:12:20.380Z,101199.75
2023-10-17T03:15:05.618Z,101196.34
2023-10-17T03:17:33.432Z,101198.94
2023-10-17T03:20:01.265Z,101192.94
2023-10-17T03:22:28.670Z,101201.50
2023-10-17T03:25:03.988Z,101195.59
2023-10-17T03:27:38.760Z,101197.22
2023-10-17T03:30:09.704Z,101198.97
2023-10-17T03:32:45.139Z,101197.28
2023-10-17T03:35:21.574Z,101196.59
2023-10-17T03:37:52.775Z,101212.13
2023-10-17T03:40:29.897Z,101204.50
2023-10-17T03:43:02.854Z,101202.84
2023-10-17T03:45:44.460Z,101202.97
2023-10-17T03:48:21.541Z,101204.78
2023-10-17T03:51:00.207Z,101211.69
2023-10-17T03:53:30.868Z,101210.88
2023-10-17T03:56:02.647Z,101209.16
2023-10-17T03:58:47.381Z,101210.88
2023-10-17T04:01:15.481Z,101203.31
2023-10-17T04:03:43.905Z,101215.25
2023-10-17T04:06:19.688Z,101217.03
2023-10-17T04:08:51.395Z,101213.56
2023-10-17T04:11:26.973Z,101210.97
2023-10-17T04:13:57.389Z,101213.59
2023-10-17T04:16:28.334Z,101217.91
2023-10-17T04:18:58.742Z,101218.88
2023-10-17T04:21:32.177Z,101225.81
2023-10-17T04:24:03.110Z,101222.44
2023-10-17T04:26:35.698Z,101235.38
2023-10-17T04:29:14.195Z,101219.94
2023-10-17T04:31:44.775Z,101213.91
2023-10-17T04:34:18.763Z,101216.53
2023-10-17T04:36:47.849Z,101220.84
2023-10-17T04:39:26.356Z,101232.00
2023-10-17T04:42:08.099Z,101232.84
2023-10-17T04:44:37.471Z,101234.53
2023-10-17T04:47:22.933Z,101227.72
2023-10-17T04:49:54.241Z,101228.56
2023-10-17T04:52:22.833Z,101231.09
2023-10-17T04:54:54.146Z,101219.94
2023-10-17T04:57:22.770Z,101225.09
2023-10-17T04:59:56.626Z,101219.13
2023-10-17T05:02:49.117Z,101216.59
2023-10-17T05:05:46.049Z,101208.03
2023-10-17T05:08:19.206Z,101214.94
2023-10-17T05:11:05.205Z,101205.53
2023-10-17T05:13:50.367Z,101203.81
2023-10-17T05:16:36.869Z,101211.50
2023-10-17T05:19:22.453Z,101209.78
2023-10-17T05:22:07.613Z,101204.59
2023-10-17T05:24:53.075Z,101192.63
2023-10-17T05:27:38.386Z,101200.25
2023-10-17T05:30:25.316Z,101206.19
2023-10-17T05:33:12.026Z,101204.53
2023-10-17T05:36:02.579Z,101206.22
2023-10-17T05:38:47.861Z,101207.09
2023-10-17T05:41:37.092Z,101207.94
2023-10-17T05:44:22.977Z,101207.16
2023-10-17T05:47:13.660Z,101224.22
2023-10-17T05:50:00.170Z,101223.34
2023-10-17T05:52:45.314Z,101220.72
2023-10-17T05:55:32.865Z,101225.84
2023-10-17T05:58:19.635Z,101218.91
2023-10-17T06:01:05.200Z,101230.88
2023-10-17T06:03:50.559Z,101231.72
2023-10-17T06:06:37.422Z,101232.53
2023-10-17T06:09:22.326Z,101230.91
2023-10-17T06:12:07.521Z,101233.47
2023-10-17T06:14:52.705Z,101233.47
2023-10-17T06:17:24.838Z,101230.91
2023-10-17T06:19:53.330Z,101241.22
2023-10-17T06:22:56.723Z,101242.03
2023-10-17T06:25:41.796Z,101240.22
2023-10-17T06:28:26.837Z,101246.16
2023-10-17T06:31:08.633Z,101250.38
2023-10-17T06:33:37.903Z,101245.09
2023-10-17T06:36:14.911Z,101238.06
2023-10-17T06:38:49.920Z,101245.66
2023-10-17T06:41:29.242Z,101241.16
2023-10-17T06:43:58.178Z,101244.44
2023-10-17T06:46:31.425Z,101247.78
2023-10-17T06:48:59.273Z,101247.72
2023-10-17T06:51:37.282Z,101249.34
2023-10-17T06:54:14.072Z,101245.03
2023-10-17T06:56:42.830Z,101241.63
2023-10-17T06:59:26.079Z,101236.34
2023-10-17T07:02:17.171Z,101244.91
2023-10-17T07:04:45.312Z,101237.13
2023-10-17T07:07:15.220Z,101236.25
2023-10-17T07:09:45.844Z,101238.69
2023-10-17T07:12:16.552Z,101241.22
2023-10-17T07:14:49.442Z,101236.81
2023-10-17T07:17:29.662Z,101231.56
2023-10-17T07:20:13.982Z,101237.50
2023-10-17T07:22:42.316Z,101234.78
2023-10-17T07:25:18.796Z,101234.72
2023-10-17T07:27:47.581Z,101231.19
2023-10-17T07:30:26.125Z,101232.75
2023-10-17T07:32:55.983Z,101224.81
2023-10-17T07:35:27.309Z,101230.59
2023-10-17T07:37:58.705Z,101239.78
2023-10-17T07:40:42.670Z,101237.09
2023-10-17T07:43:10.494Z,101235.38
2023-10-17T07:45:41.796Z,101232.13
2023-10-17T07:48:25.711Z,101225.44
2023-10-17T07:50:55.483Z,101232.44
2023-10-17T07:53:23.755Z,101229.13
2023-10-17T07:56:04.202Z,101241.16
2023-10-17T07:58:44.385Z,101237.69
2023-10-17T08:01:17.724Z,101240.06
2023-10-17T08:03:55.878Z,101232.00
2023-10-17T08:06:27.242Z,101239.81
2023-10-17T08:08:55.021Z,101235.31
2023-10-17T08:11:31.923Z,101240.13
2023-10-17T08:14:04.651Z,101241.47
2023-10-17T08:16:36.438Z,101241.88
2023-10-17T08:19:16.203Z,101231.84
2023-10-17T08:22:00.899Z,101220.56
2023-10-17T08:24:30.686Z,101213.38
2023-10-17T08:27:42.823Z,101212.81
2023-10-17T08:30:23.804Z,101217.56
2023-10-17T08:33:11.011Z,101205.56
2023-10-17T08:35:39.046Z,101206.81
2023-10-17T08:38:07.568Z,101199.72
2023-10-17T08:40:41.444Z,101202.16
2023-10-17T08:43:18.170Z,101188.06
2023-10-17T08:45:49.177Z,101201.59
2023-10-17T08:48:17.216Z,101198.81
2023-10-17T08:50:45.229Z,101200.09
2023-10-17T08:53:21.320Z,101197.88
2023-10-17T08:55:50.240Z,101203.38
2023-10-17T08:58:25.694Z,101203.53
2023-10-17T09:00:57.928Z,101206.50
2023-10-17T09:03:30.146Z,101202.56
2023-10-17T09:06:21.988Z,101215.44
2023-10-17T09:08:53.558Z,101213.97
2023-10-17T09:11:32.001Z,101207.47
2023-10-17T09:14:16.309Z,101212.09
2023-10-17T09:16:50.446Z,101210.34
2023-10-17T09:19:22.045Z,101217.97
2023-10-17T09:21:51.457Z,101207.28
2023-10-17T09:24:33.728Z,101198.88
2023-10-17T09:27:07.362Z,101199.25
2023-10-17T09:29:46.189Z,101205.31
2023-10-17T09:32:14.008Z,101196.22
2023-10-17T09:34:43.368Z,101196.16
2023-10-17T09:37:15.140Z,101195.59
2023-10-17T09:39:48.641Z,101190.69
2023-10-17T09:42:17.021Z,101185.75
2023-10-17T09:44:47.918Z,101183.75
2023-10-17T09:47:21.554Z,101173.97
2023-10-17T09:49:50.898Z,101180.66
2023-10-17T09:52:20.435Z,101172.00
2023-10-17T09:54:52.404Z,101172.94
2023-10-17T09:57:21.779Z,101161.25
2023-10-17T09:59:59.180Z,101160.22
2023-10-17T10:02:28.327Z,101170.53
2023-10-17T10:04:56.533Z,101168.44
2023-10-17T10:07:25.429Z,101173.31
2023-10-17T10:09:53.655Z,101179.75
2023-10-17T10:12:21.590Z,101178.00
2023-10-17T10:14:53.176Z,101172.91
2023-10-17T10:17:24.687Z,101179.25
2023-10-17T10:19:58.783Z,101175.97
2023-10-17T10:22:26.650Z,101177.97
2023-10-17T10:25:06.513Z,101169.41
2023-10-17T10:27:35.246Z,101175.47
2023-10-17T10:30:45.166Z,101166.00
2023-10-17T10:33:16.579Z,101161.06
2023-10-17T10:35:46.849Z,101164.28
2023-10-17T10:38:14.690Z,101166.59
2023-10-17T10:40:43.888Z,101163.09
2023-10-17T10:43:13.502Z,101167.06
2023-10-17T10:45:49.023Z,101162.16
2023-10-17T10:48:19.715Z,101167.53
2023-10-17T10:50:49.830Z,101160.00
2023-10-17T10:53:22.258Z,101163.25
2023-10-17T10:55:54.494Z,101160.72
2023-10-17T10:58:22.268Z,101153.34
2023-10-17T11:00:50.298Z,101140.16
2023-10-17T11:03:20.598Z,101137.78
2023-10-17T11:05:59.356Z,101132.50
2023-10-17T11:08:27.997Z,101130.19
2023-10-17T11:11:01.757Z,101133.78
2023-10-17T11:13:34.345Z,101126.28
2023-10-17T11:16:02.415Z,101122.41
2023-10-17T11:18:34.831Z,101112.16
2023-10-17T11:21:03.503Z,101125.72
2023-10-17T11:23:33.822Z,101105.13
2023-10-17T11:26:13.072Z,101120.28
2023-10-17T11:28:50.993Z,101115.81
2023-10-17T11:31:24.019Z,101107.00
2023-10-17T11:33:56.949Z,101102.47
2023-10-17T11:36:25.001Z,101099.16
2023-10-17T11:38:56.212Z,101091.75
2023-10-17T11:41:30.026Z,101090.66
2023-10-17T11:43:58.195Z,101081.06
2023-10-17T11:46:30.079Z,101086.03
2023-10-17T11:49:22.177Z,101092.69
2023-10-17T11:51:52.345Z,101092.91
2023-10-17T11:54:33.637Z,101079.16
2023-10-17T11:57:13.925Z,101094.72
2023-10-17T11:59:55.502Z,101090.75
2023-10-17T12:02:23.366Z,101078.38
2023-10-17T12:04:54.232Z,101083.50
2023-10-17T12:07:22.444Z,101070.06
2023-10-17T12:09:55.016Z,101071.94
2023-10-17T12:12:24.375Z,101056.47
2023-10-17T12:14:52.686Z,101058.81
2023-10-17T12:17:21.458Z,101045.75
2023-10-17T12:19:49.215Z,101040.13
2023-10-17T12:22:18.368Z,101031.47
2023-10-17T12:24:46.940Z,101027.47
2023-10-17T12:27:16.425Z,101011.91
2023-10-17T12:29:45.413Z,100991.31
2023-10-17T12:32:16.132Z,101015.03
2023-10-17T12:34:43.886Z,101017.00
2023-10-17T12:37:13.472Z,101024.84
2023-10-17T12:39:44.398Z,101019.56
2023-10-17T12:42:13.227Z,101020.16
2023-10-17T12:44:41.342Z,101012.06
2023-10-17T12:47:09.129Z,101005.25
2023-10-17T12:49:38.811Z,101013.63
2023-10-17T12:52:06.789Z,101003.25
2023-10-17T12:54:45.384Z,101004.44
2023-10-17T12:57:15.111Z,101018.09
2023-10-17T12:59:44.187Z,101016.78
2023-10-17T13:02:13.278Z,101014.34
2023-10-17T13:04:47.958Z,101011.13
2023-10-17T13:07:16.699Z,101008.44
2023-10-17T13:09:46.006Z,101012.63
2023-10-17T13:12:15.862Z,101011.94
2023-10-17T13:14:43.665Z,100995.50
2023-10-17T13:17:13.934Z,100994.09
2023-10-17T13:19:44.469Z,100995.06
2023-10-17T13:22:17.430Z,100993.97
2023-10-17T13:24:46.626Z,100998.00
2023-10-17T13:27:21.365Z,100979.66
2023-10-17T13:29:50.047Z,100977.78
2023-10-17T13:32:18.091Z,100971.22
2023-10-17T13:34:47.818Z,100971.78
2023-10-17T13:37:15.589Z,100969.16
2023-10-17T13:39:43.363Z,100969.34
2023-10-17T13:42:12.591Z,100960.03
2023-10-17T13:44:40.465Z,100962.91
2023-10-17T13:47:08.860Z,100946.47
2023-10-17T13:49:36.657Z,100943.63
2023-10-17T13:52:05.178Z,100948.13
2023-10-17T13:54:36.064Z,100947.00
2023-10-17T13:57:08.001Z,100938.06
2023-10-17T13:59:41.003Z,100932.00
2023-10-17T14:02:09.046Z,100935.53
2023-10-17T14:04:37.477Z,100939.16
2023-10-17T14:07:06.766Z,100926.44
2023-10-17T14:09:34.687Z,100932.00
2023-10-17T14:12:03.866Z,100945.88
2023-10-17T14:14:31.661Z,100945.03
2023-10-17T14:17:02.804Z,100943.66
2023-10-17T14:19:41.426Z,100937.50
2023-10-17T14:22:22.259Z,100925.94
2023-10-17T14:25:03.902Z,100927.13
2023-10-17T14:27:31.296Z,100925.03
2023-10-17T14:30:01.158Z,100922.06
2023-10-17T14:32:30.845Z,100916.13
2023-10-17T14:34:59.004Z,100913.47
2023-10-17T14:37:28.786Z,100916.28
2023-10-17T14:39:57.191Z,100923.78
2023-10-17T14:42:28.644Z,100911.81
2023-10-17T14:44:56.764Z,100917.28
2023-10-17T14:47:25.537Z,100911.59
2023-10-17T14:49:54.922Z,100895.50
2023-10-17T14:52:23.565Z,100884.44
2023-10-17T14:54:51.829Z,100880.25
2023-10-17T14:57:22.427Z,100895.88
2023-10-17T14:59:51.096Z,100913.50
2023-10-17T15:02:20.295Z,100901.81
2023-10-17T15:04:48.290Z,100908.50
2023-10-17T15:07:17.502Z,100912.09
2023-10-17T15:09:45.305Z,100902.59
2023-10-17T15:12:13.090Z,100899.28
2023-10-17T15:14:40.825Z,100902.88
2023-10-17T15:17:08.611Z,100897.69
2023-10-17T15:19:36.449Z,100897.75
2023-10-17T15:22:04.564Z,100902.41
2023-10-17T15:24:33.772Z,100901.88
2023-10-17T15:27:02.884Z,100910.50
2023-10-17T15:29:30.878Z,100901.22
2023-10-17T15:31:59.246Z,100904.66
2023-10-17T15:34:29.070Z,100908.28
2023-10-17T15:36:57.461Z,100893.81
2023-10-17T15:39:31.095Z,100901.81
2023-10-17T15:42:00.705Z,100908.03
2023-10-17T15:44:29.608Z,100906.44
2023-10-17T15:46:58.181Z,100903.47
2023-10-17T15:49:26.193Z,100900.91
2023-10-17T15:51:54.989Z,100902.06
2023-10-17T15:54:23.780Z,100898.88
2023-10-17T15:56:52.669Z,100885.50
2023-10-17T15:59:21.800Z,100901.97
2023-10-17T16:01:49.653Z,100902.25
2023-10-17T16:04:17.550Z,100904.19
2023-10-17T16:06:47.053Z,100907.16
2023-10-17T16:09:17.074Z,100901.34
2023-10-17T16:11:45.012Z,100897.28
2023-10-17T16:14:13.205Z,100897.56
2023-10-17T16:16:42.352Z,100900.50
2023-10-17T16:19:10.160Z,100899.13
2023-10-17T16:21:37.960Z,100898.59
2023-10-17T16:24:08.124Z,100896.31
2023-10-17T16:26:36.658Z,100902.78
2023-10-17T16:29:05.634Z,100907.44
2023-10-17T16:31:34.663Z,100911.19
2023-10-17T16:34:03.932Z,100906.38
2023-10-17T16:36:31.833Z,100892.34
2023-10-17T16:38:59.649Z,100911.44
2023-10-17T16:41:28.966Z,100926.34
2023-10-17T16:43:57.377Z,100917.09
2023-10-17T16:46:30.059Z,100921.50
2023-10-17T16:49:00.764Z,100917.50
2023-10-17T16:51:31.401Z,100928.00
2023-10-17T16:53:59.315Z,100923.78
2023-10-17T16:56:27.138Z,100915.34
2023-10-17T16:58:58.153Z,100924.88
2023-10-17T17:01:26.158Z,100921.63
2023-10-17T17:03:54.023Z,100929.66
2023-10-17T17:06:21.878Z,100921.31
2023-10-17T17:08:52.312Z,100930.88
2023-10-17T17:11:20.091Z,100941.25
2023-10-17T17:13:47.868Z,100949.06
2023-10-17T17:16:15.678Z,100944.09
2023-10-17T17:18:47.849Z,100941.66
2023-10-17T17:21:17.207Z,100925.63
2023-10-17T17:23:45.380Z,100934.13
2023-10-17T17:26:17.978Z,100931.75
2023-10-17T17:28:45.950Z,100935.25
2023-10-17T17:31:14.893Z,100932.84
2023-10-17T17:33:43.701Z,100914.03
2023-10-17T17:36:12.355Z,100920.22
2023-10-17T17:38:41.047Z,100928.81
2023-10-17T17:41:09.024Z,100928.09
2023-10-17T17:43:38.317Z,100916.25
2023-10-17T17:46:07.177Z,100927.41
2023-10-17T17:48:36.075Z,100920.59
2023-10-17T17:51:05.059Z,100907.78
2023-10-17T17:53:33.268Z,100910.50
2023-10-17T17:56:02.461Z,100905.41
2023-10-17T17:58:32.012Z,100902.81
2023-10-17T18:01:01.436Z,100902.03
2023-10-17T18:03:29.896Z,100900.44
2023-10-17T18:05:57.923Z,100893.66
2023-10-17T18:08:26.319Z,100897.94
2023-10-17T18:10:54.252Z,100892.84
2023-10-17T18:13:22.791Z,100889.47
2023-10-17T18:15:54.043Z,100885.28
2023-10-17T18:18:23.235Z,100881.25
2023-10-17T18:20:51.145Z,100889.94
2023-10-17T18:23:19.509Z,100896.91
2023-10-17T18:25:47.227Z,100899.50
2023-10-17T18:28:15.070Z,100880.56
2023-10-17T18:30:42.953Z,100894.34
2023-10-17T18:33:11.152Z,100894.34
2023-10-17T18:35:40.339Z,100910.84
2023-10-17T18:38:08.731Z,100903.00
2023-10-17T18:40:38.657Z,100891.03
2023-10-17T18:43:06.678Z,100886.00
2023-10-17T18:45:35.141Z,100893.63
2023-10-17T18:48:03.026Z,100891.94
2023-10-17T18:50:31.471Z,100889.34
2023-10-17T18:53:02.166Z,100882.47
2023-10-17T18:55:29.995Z,100878.97
2023-10-17T18:57:58.156Z,100879.97
2023-10-17T19:00:25.991Z,100881.78
2023-10-17T19:02:53.793Z,100877.59
2023-10-17T19:05:21.965Z,100872.34
2023-10-17T19:07:50.045Z,100880.22
2023-10-17T19:10:20.337Z,100876.91
2023-10-17T19:12:53.480Z,100875.03
2023-10-17T19:15:22.379Z,100873.53
2023-10-17T19:17:52.416Z,100852.44
2023-10-17T19:20:20.424Z,100867.69
2023-10-17T19:22:48.822Z,100870.38
2023-10-17T19:25:17.593Z,100873.94
2023-10-17T19:27:46.847Z,100864.53
2023-10-17T19:30:15.116Z,100858.66
2023-10-17T19:32:43.010Z,100861.34
2023-10-17T19:35:12.082Z,100865.72
2023-10-17T19:37:40.105Z,100858.81
2023-10-17T19:40:09.650Z,100857.16
2023-10-17T19:42:38.902Z,100852.13
2023-10-17T19:45:10.034Z,100855.63
2023-10-17T19:47:37.996Z,100844.63
2023-10-17T19:50:08.847Z,100853.22
2023-10-17T19:52:36.763Z,100850.84
2023-10-17T19:55:04.805Z,100861.97
2023-10-17T19:57:32.694Z,100856.06
2023-10-17T20:00:00.504Z,100855.28
2023-10-17T20:02:30.617Z,100863.09
2023-10-17T20:04:59.020Z,100856.34
2023-10-17T20:07:26.814Z,100852.06
2023-10-17T20:09:54.886Z,100848.69
2023-10-17T20:12:22.726Z,100847.09
2023-10-17T20:14:50.517Z,100840.31
2023-10-17T20:17:19.558Z,100841.19
2023-10-17T20:19:48.983Z,100835.25
2023-10-17T20:22:16.810Z,100839.59
2023-10-17T20:24:44.971Z,100827.66
2023-10-17T20:27:12.927Z,100823.31
2023-10-17T20:29:40.812Z,100826.06
2023-10-17T20:32:08.955Z,100821.00
2023-10-17T20:34:36.883Z,100817.66
2023-10-17T20:37:06.269Z,100818.56
2023-10-17T20:39:34.746Z,100817.84
2023-10-17T20:42:03.858Z,100811.81
2023-10-17T20:44:31.722Z,100805.84
2023-10-17T20:47:00.217Z,100810.13
2023-10-17T20:49:28.667Z,100802.47
2023-10-17T20:51:57.010Z,100793.09
2023-10-17T20:54:26.462Z,100793.13
2023-10-17T20:56:54.267Z,100789.72
2023-10-17T20:59:22.053Z,100783.72
2023-10-17T21:01:50.066Z,100791.59
2023-10-17T21:04:18.976Z,100786.44
2023-10-17T21:06:47.203Z,100783.84
2023-10-17T21:09:16.455Z,100778.84
2023-10-17T21:11:45.641Z,100768.63
2023-10-17T21:14:14.455Z,100772.00
2023-10-17T21:16:42.333Z,100771.31
2023-10-17T21:19:11.478Z,100774.75
2023-10-17T21:21:39.719Z,100772.19
2023-10-17T21:24:10.767Z,100764.50
2023-10-17T21:26:40.430Z,100771.47
2023-10-17T21:29:11.860Z,100768.06
2023-10-17T21:31:39.878Z,100760.47
2023-10-17T21:34:09.391Z,100759.69
2023-10-17T21:36:37.492Z,100763.16
2023-10-17T21:39:07.973Z,100754.63
2023-10-17T21:41:36.141Z,100753.81
2023-10-17T21:44:04.805Z,100742.69
2023-10-17T21:46:34.014Z,100739.22
2023-10-17T21:49:02.065Z,100741.81
2023-10-17T21:51:30.034Z,100744.38
2023-10-17T21:53:59.103Z,100747.84
2023-10-17T21:56:26.862Z,100730.81
2023-10-17T21:58:54.588Z,100748.75
2023-10-17T22:01:23.144Z,100739.28
2023-10-17T22:03:52.703Z,100742.78
2023-10-17T22:06:21.604Z,100737.59
2023-10-17T22:08:50.524Z,100723.97
2023-10-17T22:11:19.663Z,100730.91
2023-10-17T22:13:50.554Z,100728.41
2023-10-17T22:16:18.947Z,100726.72
2023-10-17T22:18:47.946Z,100735.38
2023-10-17T22:21:20.741Z,100738.09
2023-10-17T22:23:48.986Z,100731.16
2023-10-17T22:26:16.779Z,100722.63
2023-10-17T22:28:44.767Z,100719.25
2023-10-17T22:31:12.949Z,100710.78
2023-10-17T22:33:41.947Z,100708.34
2023-10-17T22:36:12.770Z,100687.91
2023-10-17T22:38:42.153Z,100694.72
2023-10-17T22:41:11.154Z,100688.00
2023-10-17T22:43:38.950Z,100691.28
2023-10-17T22:46:07.125Z,100689.59
2023-10-17T22:48:35.385Z,100687.06
2023-10-17T22:51:03.531Z,100686.19
2023-10-17T22:53:32.460Z,100688.78
2023-10-17T22:56:01.879Z,100688.78
2023-10-17T22:58:29.667Z,100688.78
2023-10-17T23:00:58.039Z,100688.00
2023-10-17T23:03:27.195Z,100701.75
2023-10-17T23:05:55.575Z,100695.81
2023-10-17T23:08:23.385Z,100691.66
2023-10-17T23:10:51.833Z,100690.72
2023-10-17T23:13:21.073Z,100687.38
2023-10-17T23:15:48.944Z,100677.13
2023-10-17T23:18:17.228Z,100687.44
2023-10-17T23:20:45.498Z,100679.88
2023-10-17T23:23:14.282Z,100684.19
2023-10-17T23:25:42.505Z,100684.22
2023-10-17T23:28:12.342Z,100685.19
2023-10-17T23:30:42.291Z,100686.00
2023-10-17T23:33:10.521Z,100685.16
2023-10-17T23:35:38.496Z,100665.69
2023-10-17T23:38:06.463Z,100680.19
2023-10-17T23:40:34.510Z,100676.03
2023-10-17T23:43:02.402Z,100674.47
2023-10-17T23:45:30.176Z,100664.25
2023-10-17T23:47:59.443Z,100664.38
2023-10-17T23:50:27.285Z,100667.81
2023-10-17T23:52:55.045Z,100662.75
2023-10-17T23:55:24.448Z,100644.13
2023-10-17T23:57:52.326Z,100652.63
